Provincetown, MA

8:19 PM EST on November 17, 2017 (GMT -0500)
Provincetown Municipal

Weather History for KPVC - March, 2013

Change the Weather History Date:

Monday, March 11, 2013

  Actual Average Record
Temperature  
Mean Temperature 40 °F -  
Max Temperature 46 °F 39 °F 53 °F (2011)
Min Temperature 35 °F 28 °F 14 °F (2017)
Degree Days  
Heating Degree Days 24    
Moisture  
Dew Point 36 °F    
Average Humidity 85    
Maximum Humidity 93    
Minimum Humidity 71    
Precipitation  
Precipitation 0.00 in - - ()
Sea Level Pressure  
Sea Level Pressure 30.27 in    
Wind  
Wind Speed 10 mph (SSW)    
Max Wind Speed 15 mph    
Max Gust Speed 22 mph    
Visibility 10 miles    
Events      
Averages and records for this station are not official NWS values.
T = Trace of Precipitation, MM = Missing Value Source: NWS Daily Summary

Daily Weather History Graph

Daily Weather History Graph

Search for Another Location

Airport or City:

Trip Planner

Search our weather history database for the weather conditions in past years. The results will help you decide how hot, cold, wet, or windy it might be!

Date:

Astronomy

Mar. 11, 2013 Rise Set
Actual Time 6:59 AM EDT 6:43 PM EDT
Civil Twilight 6:31 AM EDT 7:10 PM EDT
Nautical Twilight 5:58 AM EDT 7:43 PM EDT
Astronomical Twilight 5:26 AM EDT 8:16 PM EDT
Moon 6:30 AM EDT (3/11) 6:52 PM EDT (3/11)
Length of Visible Light 12h 39m
Length of Day
11h 43m
Waning Crescent, 0% of the Moon is Illuminated
Mar 11
Waning Crescent
Mar 11
New
Mar 19
First Quarter
Mar 27
Full
Apr 3
Last Quarter

Hourly Weather History & Observations

Time (EDT) Temp. Windchill Dew Point Humidity Pressure Visibility Wind Dir Wind Speed Gust Speed Precip Events Conditions
12:15 AM 35.6 °F 28.6 °F 32.0 °F 87% 30.34 in 10.0 mi South 9.2 mph - N/A   Scattered Clouds
12:35 AM 35.6 °F 29.2 °F 30.2 °F 81% 30.33 in 10.0 mi South 8.1 mph - N/A   Scattered Clouds
1:35 AM 35.6 °F 29.2 °F 32.0 °F 87% 30.34 in 10.0 mi SSW 8.1 mph - N/A   Scattered Clouds
1:55 AM 35.6 °F 29.9 °F 30.2 °F 81% 30.33 in 10.0 mi South 6.9 mph - N/A   Mostly Cloudy
2:15 AM 35.6 °F 29.2 °F 30.2 °F 81% 30.34 in 10.0 mi SSW 8.1 mph - N/A   Overcast
2:35 AM 35.6 °F 29.9 °F 33.8 °F 93% 30.35 in 10.0 mi SSW 6.9 mph - N/A   Mostly Cloudy
2:55 AM 35.6 °F 29.9 °F 32.0 °F 87% 30.34 in 10.0 mi SSW 6.9 mph - N/A   Overcast
3:15 AM 35.6 °F 28.6 °F 32.0 °F 87% 30.34 in 10.0 mi SW 9.2 mph - N/A   Overcast
3:35 AM 35.6 °F 28.6 °F 32.0 °F 87% 30.35 in 10.0 mi SW 9.2 mph - N/A   Overcast
3:55 AM 35.6 °F 29.9 °F 32.0 °F 87% 30.33 in 10.0 mi SSW 6.9 mph - N/A   Overcast
4:15 AM 35.6 °F 30.7 °F 32.0 °F 87% 30.31 in 10.0 mi SW 5.8 mph - N/A   Overcast
4:35 AM 35.6 °F 29.9 °F 32.0 °F 87% 30.29 in 10.0 mi South 6.9 mph - N/A   Overcast
4:55 AM 35.6 °F 29.2 °F 32.0 °F 87% 30.29 in 10.0 mi SSW 8.1 mph - N/A   Overcast
5:15 AM 35.6 °F 28.6 °F 30.2 °F 81% 30.30 in 10.0 mi South 9.2 mph - N/A   Overcast
5:35 AM 35.6 °F 28.6 °F 33.8 °F 93% 30.31 in 10.0 mi SSW 9.2 mph - N/A   Overcast
5:55 AM 35.6 °F 29.2 °F 33.8 °F 93% 30.32 in 10.0 mi SSW 8.1 mph - N/A   Overcast
6:15 AM 35.6 °F 28.0 °F 32.0 °F 87% 30.31 in 10.0 mi SSW 10.4 mph - N/A   Overcast
6:35 AM 35.6 °F 28.0 °F 33.8 °F 93% 30.30 in 10.0 mi SSW 10.4 mph - N/A   Overcast
6:55 AM 35.6 °F 28.6 °F 33.8 °F 93% 30.29 in 10.0 mi SSW 9.2 mph 17.3 mph N/A   Overcast
7:15 AM 35.6 °F 28.6 °F 32.0 °F 87% 30.30 in 10.0 mi SSW 9.2 mph - N/A   Overcast
7:35 AM 35.6 °F 27.1 °F 33.8 °F 93% 30.31 in 10.0 mi SW 12.7 mph - N/A   Overcast
7:55 AM 37.4 °F 28.9 °F 33.8 °F 87% 30.32 in 10.0 mi SW 13.8 mph - N/A   Overcast
8:15 AM 37.4 °F 29.8 °F 33.8 °F 87% 30.31 in 10.0 mi SSW 11.5 mph - N/A   Overcast
8:35 AM 37.4 °F 30.3 °F 33.8 °F 87% 30.31 in 10.0 mi SSW 10.4 mph - N/A   Overcast
8:55 AM 37.4 °F 29.3 °F 35.6 °F 93% 30.31 in 10.0 mi SW 12.7 mph - N/A   Overcast
9:15 AM 37.4 °F 30.3 °F 33.8 °F 87% 30.30 in 10.0 mi SW 10.4 mph - N/A   Overcast
9:35 AM 37.4 °F 29.3 °F 33.8 °F 87% 30.29 in 10.0 mi SSW 12.7 mph - N/A   Overcast
9:55 AM 39.2 °F 33.0 °F 35.6 °F 87% 30.29 in 10.0 mi SSW 9.2 mph - N/A   Overcast
10:15 AM 39.2 °F 32.0 °F 35.6 °F 87% 30.30 in 10.0 mi SSW 11.5 mph - N/A   Overcast
10:35 AM 39.2 °F 31.6 °F 35.6 °F 87% 30.30 in 10.0 mi SW 12.7 mph 16.1 mph N/A   Overcast
10:55 AM 39.2 °F 32.0 °F 35.6 °F 87% 30.30 in 10.0 mi SSW 11.5 mph - N/A   Overcast
11:15 AM 39.2 °F 31.2 °F 35.6 °F 87% 30.31 in 10.0 mi SSW 13.8 mph - N/A   Overcast
11:35 AM 42.8 °F 37.0 °F 35.6 °F 76% 30.29 in 10.0 mi South 10.4 mph - N/A   Overcast
11:55 AM 42.8 °F 36.2 °F 35.6 °F 76% 30.30 in 10.0 mi SSW 12.7 mph 18.4 mph N/A   Overcast
12:15 PM 41.0 °F 33.5 °F 35.6 °F 81% 30.30 in 10.0 mi SSW 13.8 mph - N/A   Overcast
12:35 PM 42.8 °F 36.2 °F 35.6 °F 76% 30.30 in 10.0 mi SSW 12.7 mph - N/A   Overcast
12:55 PM 42.8 °F 35.8 °F 37.4 °F 81% 30.28 in 10.0 mi South 13.8 mph - N/A   Overcast
1:15 PM 44.6 °F 39.2 °F 37.4 °F 76% 30.28 in 10.0 mi South 10.4 mph - N/A   Overcast
1:35 PM 42.8 °F 36.2 °F 37.4 °F 81% 30.28 in 10.0 mi South 12.7 mph 17.3 mph N/A   Overcast
1:55 PM 42.8 °F 36.2 °F 37.4 °F 81% 30.28 in 10.0 mi South 12.7 mph - N/A   Mostly Cloudy
2:15 PM 44.6 °F 38.1 °F 37.4 °F 76% 30.27 in 10.0 mi South 13.8 mph 20.7 mph N/A   Partly Cloudy
2:35 PM 46.4 °F 40.7 °F 37.4 °F 71% 30.26 in 10.0 mi South 12.7 mph 18.4 mph N/A   Clear
2:55 PM 44.6 °F 38.1 °F 37.4 °F 76% 30.25 in 10.0 mi South 13.8 mph 18.4 mph N/A   Clear
3:15 PM 46.4 °F 40.1 °F 39.2 °F 76% 30.24 in 10.0 mi South 15.0 mph 18.4 mph N/A   Clear
3:35 PM 46.4 °F 40.7 °F 39.2 °F 76% 30.24 in 10.0 mi South 12.7 mph 19.6 mph N/A   Clear
3:55 PM 46.4 °F 40.4 °F 37.4 °F 71% 30.24 in 10.0 mi South 13.8 mph 18.4 mph N/A   Clear
4:15 PM 44.6 °F 38.1 °F 37.4 °F 76% 30.23 in 10.0 mi South 13.8 mph 20.7 mph N/A   Clear
4:35 PM 44.6 °F 38.8 °F 39.2 °F 81% 30.23 in 10.0 mi South 11.5 mph 19.6 mph N/A   Clear
4:55 PM 44.6 °F 37.8 °F 37.4 °F 76% 30.23 in 10.0 mi South 15.0 mph - N/A   Clear
5:15 PM 42.8 °F 35.8 °F 37.4 °F 81% 30.23 in 10.0 mi South 13.8 mph 18.4 mph N/A   Clear
5:35 PM 42.8 °F 35.8 °F 37.4 °F 81% 30.23 in 10.0 mi South 13.8 mph 20.7 mph N/A   Clear
5:55 PM 42.8 °F 35.8 °F 39.2 °F 87% 30.23 in 10.0 mi South 13.8 mph 19.6 mph N/A   Clear
6:15 PM 42.8 °F 35.4 °F 37.4 °F 81% 30.23 in 10.0 mi South 15.0 mph 21.9 mph N/A   Clear
6:35 PM 41.0 °F 33.1 °F 37.4 °F 87% 30.24 in 10.0 mi South 15.0 mph 19.6 mph N/A   Clear
6:55 PM 41.0 °F 34.3 °F 37.4 °F 87% 30.23 in 10.0 mi South 11.5 mph - N/A   Clear
7:15 PM 41.0 °F 34.7 °F 37.4 °F 87% 30.23 in 10.0 mi South 10.4 mph - N/A   Clear
7:35 PM 41.0 °F 34.3 °F 37.4 °F 87% 30.22 in 10.0 mi South 11.5 mph - N/A   Clear
7:55 PM 41.0 °F 34.3 °F 37.4 °F 87% 30.22 in 10.0 mi South 11.5 mph - N/A   Clear
8:15 PM 39.2 °F 32.0 °F 37.4 °F 93% 30.23 in 10.0 mi South 11.5 mph - N/A   Clear
8:35 PM 41.0 °F 35.2 °F 37.4 °F 87% 30.23 in 10.0 mi South 9.2 mph - N/A   Partly Cloudy
8:55 PM 41.0 °F 34.3 °F 37.4 °F 87% 30.23 in 10.0 mi South 11.5 mph - N/A   Partly Cloudy
9:15 PM 41.0 °F 34.7 °F 37.4 °F 87% 30.22 in 10.0 mi South 10.4 mph - N/A   Clear
9:35 PM 41.0 °F 35.2 °F 39.2 °F 93% 30.22 in 10.0 mi South 9.2 mph 16.1 mph N/A   Clear
9:55 PM 41.0 °F 34.7 °F 39.2 °F 93% 30.22 in 10.0 mi South 10.4 mph 16.1 mph N/A   Clear
10:15 PM 41.0 °F 34.7 °F 37.4 °F 87% 30.21 in 10.0 mi South 10.4 mph - N/A   Clear
10:35 PM 41.0 °F 33.9 °F 39.2 °F 93% 30.20 in 10.0 mi South 12.7 mph - N/A   Clear
10:55 PM 42.8 °F 37.0 °F 39.2 °F 87% 30.20 in 10.0 mi South 10.4 mph 16.1 mph N/A   Clear
11:15 PM 42.8 °F 37.0 °F 39.2 °F 87% 30.20 in 10.0 mi South 10.4 mph 16.1 mph N/A   Clear
11:35 PM 42.8 °F 36.6 °F 39.2 °F 87% 30.19 in 10.0 mi South 11.5 mph 18.4 mph N/A   Clear
11:55 PM 42.8 °F 35.8 °F 39.2 °F 87% 30.19 in 10.0 mi South 13.8 mph 17.3 mph N/A   Clear